Pine Ridge, Kentucky
Current Conditions -  °F | °C
As of 1:15 AM on Friday 28 Nov 2014 (Local Time) from KJKL Reporting Station
Overcast Overcast  
Wind Chill: 21°   Ceiling: 2300
Heat Index: 28°   Visibility: 10mi
Dew Point: 19°   Wind: 7mph
Humidity: 69%   Direction: 260°W
Pressure: 30.35"   Gusts: NA
Location:  37.77°N, 83.62°W
Report Text: KJKL 280615Z AUTO 26006KT 10SM BKN023 BKN028 OVC040 M02/M07 A3035 RMK AO2 T10221072
Loading
Personal Weather Stations






























Interactive Weather Map New forecast layout! Learn more

10-Day Weather Forecast

Advertisements
Track Severe Weather on mobile